Time;durP1;ratioP1;P1;durP2;ratioP2;P2;SDS_P1;SDS_P2;PMS_P1;PMS_P2;Temp;Humidity;BMP_temperature;BMP_pressure;BME280_temperature;BME280_humidity;BME280_pressure;Samples;Min_cycle;Max_cycle;Signal;HPM_P1;HPM_P2
2022/10/15 00:08:08;;;;;;;6.22;2.50;;;;;;;;;;20921353;28;20404;-64
2022/10/15 00:18:10;;;;;;;8.20;2.47;;;;;;;;;;20920968;28;20045;-63
2022/10/15 00:28:12;;;;;;;4.03;2.00;;;;;;;;;;20917742;28;20080;-61
2022/10/15 00:38:14;;;;;;;5.82;2.35;;;;;;;;;;20918200;28;20041;-62
2022/10/15 00:48:16;;;;;;;5.18;2.22;;;;;;;;;;20917066;28;20060;-60
2022/10/15 00:58:27;;;;;;;4.97;2.17;;;;;;;;;;20916355;28;20401;-59
2022/10/15 01:08:29;;;;;;;5.68;2.17;;;;;;;;;;20914918;28;20060;-60
2022/10/15 01:18:33;;;;;;;5.45;3.50;;;;;;;;;;20915300;28;20056;-60
2022/10/15 01:28:52;;;;;;;4.50;2.70;;;;;;;;;;20914406;28;20063;-63
2022/10/15 01:39:01;;;;;;;3.63;2.50;;;;;;;;;;20915286;28;20394;-61
2022/10/15 01:49:04;;;;;;;6.82;2.47;;;;;;;;;;20913702;28;20057;-62
2022/10/15 01:59:06;;;;;;;5.28;2.22;;;;;;;;;;20913884;28;20076;-61
2022/10/15 02:09:26;;;;;;;4.05;2.08;;;;;;;;;;20912912;28;20472;-60
2022/10/15 02:19:48;;;;;;;3.97;2.60;;;;;;;;;;20924884;28;20052;-67
2022/10/15 02:29:51;;;;;;;3.15;2.15;;;;;;;;;;20928136;28;20053;-66
2022/10/15 02:39:53;;;;;;;6.30;2.50;;;;;;;;;;20927394;28;20049;-67
2022/10/15 02:49:57;;;;;;;5.78;2.28;;;;;;;;;;20927105;28;20052;-62
2022/10/15 03:00:00;;;;;;;5.90;2.30;;;;;;;;;;20927651;28;20130;-64
2022/10/15 03:10:04;;;;;;;4.10;1.90;;;;;;;;;;20925639;28;20489;-61
2022/10/15 03:20:09;;;;;;;4.15;2.17;;;;;;;;;;20924320;28;20052;-67
2022/10/15 03:30:14;;;;;;;5.20;2.40;;;;;;;;;;20922865;28;20057;-61
2022/10/15 03:40:18;;;;;;;3.10;2.20;;;;;;;;;;20922362;28;20107;-66
2022/10/15 03:50:22;;;;;;;2.85;2.08;;;;;;;;;;20922008;28;20114;-65
2022/10/15 04:00:27;;;;;;;3.30;2.30;;;;;;;;;;20921368;28;20132;-62
2022/10/15 04:10:34;;;;;;;3.78;2.30;;;;;;;;;;20920426;28;20053;-60
2022/10/15 04:20:37;;;;;;;3.47;2.50;;;;;;;;;;20921132;28;20056;-62
2022/10/15 04:30:45;;;;;;;3.30;2.42;;;;;;;;;;20918791;28;20041;-66
2022/10/15 04:40:48;;;;;;;3.97;2.47;;;;;;;;;;20917889;28;20107;-62
2022/10/15 04:51:02;;;;;;;6.63;2.77;;;;;;;;;;20917445;28;20049;-65
2022/10/15 05:01:10;;;;;;;6.65;2.47;;;;;;;;;;20917007;28;20374;-62
2022/10/15 05:11:18;;;;;;;3.90;2.53;;;;;;;;;;20916047;28;20071;-65
2022/10/15 05:21:21;;;;;;;3.28;2.13;;;;;;;;;;20913855;28;20110;-66
2022/10/15 05:31:26;;;;;;;3.08;2.42;;;;;;;;;;20915672;28;20056;-66
2022/10/15 05:41:29;;;;;;;5.93;3.58;;;;;;;;;;20913492;28;20071;-67
2022/10/15 05:51:31;;;;;;;4.30;2.47;;;;;;;;;;20913041;28;20179;-61
2022/10/15 06:01:34;;;;;;;4.25;2.40;;;;;;;;;;20913618;28;20060;-67
2022/10/15 06:11:37;;;;;;;3.92;2.17;;;;;;;;;;20912356;28;20049;-61
2022/10/15 06:21:39;;;;;;;4.65;2.75;;;;;;;;;;20912177;28;20493;-62
2022/10/15 06:31:43;;;;;;;9.27;2.92;;;;;;;;;;20911016;28;20067;-60
2022/10/15 06:41:45;;;;;;;3.78;2.40;;;;;;;;;;20910719;28;20057;-63
2022/10/15 06:51:49;;;;;;;4.50;2.63;;;;;;;;;;20910497;28;20256;-62
2022/10/15 07:01:51;;;;;;;4.18;2.47;;;;;;;;;;20913735;28;20049;-61
2022/10/15 07:11:53;;;;;;;5.28;2.80;;;;;;;;;;20924564;28;20045;-61
2022/10/15 07:21:55;;;;;;;10.43;3.85;;;;;;;;;;20924659;28;20118;-62
2022/10/15 07:31:58;;;;;;;6.82;3.30;;;;;;;;;;20924293;28;20124;-62
2022/10/15 07:42:00;;;;;;;10.20;4.53;;;;;;;;;;20922467;28;20095;-62
2022/10/15 07:52:02;;;;;;;9.60;3.17;;;;;;;;;;20922664;28;20049;-66
2022/10/15 08:02:04;;;;;;;6.60;4.30;;;;;;;;;;20920699;28;20053;-71
2022/10/15 08:12:06;;;;;;;4.82;3.88;;;;;;;;;;20919281;28;20080;-63
2022/10/15 08:22:11;;;;;;;6.57;4.10;;;;;;;;;;20919810;28;20471;-64
2022/10/15 08:32:13;;;;;;;7.35;4.18;;;;;;;;;;20919163;28;20045;-65
2022/10/15 08:42:28;;;;;;;13.30;4.50;;;;;;;;;;20916640;28;20056;-62
2022/10/15 08:52:36;;;;;;;9.20;5.47;;;;;;;;;;20916229;28;20048;-62
2022/10/15 09:02:44;;;;;;;7.10;4.90;;;;;;;;;;20916148;28;20486;-60
2022/10/15 09:13:00;;;;;;;8.20;4.57;;;;;;;;;;20916246;28;20064;-62
2022/10/15 09:23:02;;;;;;;7.53;4.60;;;;;;;;;;20914811;28;20132;-64
2022/10/15 09:33:23;;;;;;;9.43;5.28;;;;;;;;;;20895628;28;20147;-63
2022/10/15 09:43:29;;;;;;;10.25;3.85;;;;;;;;;;20912942;28;20144;-63
2022/10/15 09:54:05;;;;;;;7.35;4.25;;;;;;;;;;20912732;28;20050;-62
2022/10/15 10:04:10;;;;;;;10.00;4.75;;;;;;;;;;20820294;28;20092;-60
2022/10/15 10:14:20;;;;;;;4.35;2.70;;;;;;;;;;20820451;28;20091;-64
2022/10/15 10:24:22;;;;;;;9.75;4.20;;;;;;;;;;20820022;28;20128;-65
2022/10/15 10:34:29;;;;;;;6.43;3.40;;;;;;;;;;20854341;28;20048;-65
2022/10/15 10:44:31;;;;;;;7.93;4.38;;;;;;;;;;20925771;28;20060;-64
2022/10/15 10:54:33;;;;;;;6.75;2.92;;;;;;;;;;20925949;28;20127;-63
2022/10/15 11:04:36;;;;;;;8.20;3.78;;;;;;;;;;20924571;28;20060;-64
2022/10/15 11:14:44;;;;;;;6.45;2.75;;;;;;;;;;20924166;28;20052;-62
2022/10/15 11:24:56;;;;;;;7.20;4.22;;;;;;;;;;20923654;28;20049;-67
2022/10/15 11:35:07;;;;;;;5.40;3.00;;;;;;;;;;20922283;28;20045;-69
2022/10/15 11:45:21;;;;;;;6.28;3.60;;;;;;;;;;20920980;28;20057;-62
2022/10/15 11:55:23;;;;;;;7.07;3.45;;;;;;;;;;20922553;28;20127;-68
2022/10/15 12:05:38;;;;;;;7.25;3.10;;;;;;;;;;20921512;28;20063;-67
2022/10/15 12:15:46;;;;;;;4.43;3.00;;;;;;;;;;20919669;28;20130;-59
2022/10/15 12:25:48;;;;;;;9.02;5.10;;;;;;;;;;20918694;28;20049;-67
2022/10/15 12:35:58;;;;;;;7.90;3.08;;;;;;;;;;20916933;28;20477;-68
2022/10/15 12:46:02;;;;;;;6.28;3.05;;;;;;;;;;20916702;28;20460;-67
2022/10/15 12:56:10;;;;;;;5.25;2.72;;;;;;;;;;20916916;28;20045;-68
2022/10/15 13:06:13;;;;;;;7.50;2.80;;;;;;;;;;20915550;28;20132;-65
2022/10/15 13:16:15;;;;;;;4.22;2.15;;;;;;;;;;20914262;28;20519;-66
2022/10/15 13:26:19;;;;;;;4.40;1.70;;;;;;;;;;20914219;28;20045;-62
2022/10/15 13:36:24;;;;;;;3.10;1.85;;;;;;;;;;20914532;28;20110;-64
2022/10/15 13:46:27;;;;;;;3.53;2.17;;;;;;;;;;20912541;28;20068;-63
2022/10/15 13:56:30;;;;;;;3.10;2.00;;;;;;;;;;20912828;28;20053;-63
2022/10/15 14:06:33;;;;;;;6.65;2.85;;;;;;;;;;20914007;28;20065;-63
2022/10/15 14:16:41;;;;;;;4.45;1.55;;;;;;;;;;20926142;28;20077;-63
2022/10/15 14:26:43;;;;;;;5.40;1.60;;;;;;;;;;20928483;28;20088;-64
2022/10/15 14:36:45;;;;;;;7.32;4.78;;;;;;;;;;20927613;28;20290;-64
2022/10/15 14:46:48;;;;;;;3.55;1.50;;;;;;;;;;20926276;28;20107;-62
2022/10/15 14:56:51;;;;;;;3.63;1.40;;;;;;;;;;20926647;28;20078;-64
2022/10/15 15:06:53;;;;;;;5.38;1.65;;;;;;;;;;20925394;28;20053;-62
2022/10/15 15:16:55;;;;;;;4.18;1.38;;;;;;;;;;20924428;28;20045;-63
2022/10/15 15:26:57;;;;;;;8.13;2.53;;;;;;;;;;20922798;28;20048;-63
2022/10/15 15:37:00;;;;;;;4.22;1.52;;;;;;;;;;20923775;28;20136;-62
2022/10/15 15:47:02;;;;;;;6.78;1.60;;;;;;;;;;20923376;28;20099;-61
2022/10/15 15:57:04;;;;;;;9.80;5.13;;;;;;;;;;20922663;28;20489;-61
2022/10/15 16:07:06;;;;;;;5.20;2.08;;;;;;;;;;20920851;28;20045;-63
2022/10/15 16:17:08;;;;;;;4.38;1.80;;;;;;;;;;20918949;28;20103;-62
2022/10/15 16:27:10;;;;;;;6.50;1.80;;;;;;;;;;20918855;28;20049;-62
2022/10/15 16:37:12;;;;;;;4.47;2.00;;;;;;;;;;20918142;28;20049;-62
2022/10/15 16:47:14;;;;;;;4.13;1.30;;;;;;;;;;20915437;28;20501;-61
2022/10/15 16:57:16;;;;;;;5.35;1.67;;;;;;;;;;20916800;28;20045;-63
2022/10/15 17:07:18;;;;;;;5.90;1.60;;;;;;;;;;20914682;28;20448;-63
2022/10/15 17:17:20;;;;;;;7.75;2.25;;;;;;;;;;20916074;28;20053;-63
2022/10/15 17:27:23;;;;;;;9.93;2.45;;;;;;;;;;20914378;28;20049;-63
2022/10/15 17:37:25;;;;;;;4.75;2.63;;;;;;;;;;20915332;28;20048;-61
2022/10/15 17:47:26;;;;;;;9.13;3.35;;;;;;;;;;20912799;28;20052;-60
2022/10/15 17:57:28;;;;;;;6.35;2.70;;;;;;;;;;20913313;28;20424;-62
2022/10/15 18:07:31;;;;;;;14.75;9.80;;;;;;;;;;20912571;28;20063;-60
2022/10/15 18:17:33;;;;;;;3.67;2.80;;;;;;;;;;20912028;28;20402;-62
2022/10/15 18:27:35;;;;;;;9.38;2.72;;;;;;;;;;20911584;28;20053;-63
2022/10/15 18:37:36;;;;;;;9.50;2.90;;;;;;;;;;20912745;28;20102;-63
2022/10/15 18:47:38;;;;;;;7.72;4.30;;;;;;;;;;20910030;28;20103;-64
2022/10/15 18:57:40;;;;;;;6.43;2.38;;;;;;;;;;20914379;28;20103;-60
2022/10/15 19:07:42;;;;;;;8.32;3.33;;;;;;;;;;20925920;28;20056;-63
2022/10/15 19:17:44;;;;;;;8.50;4.03;;;;;;;;;;20924584;28;20397;-61
2022/10/15 19:27:47;;;;;;;5.55;3.63;;;;;;;;;;20923808;28;20148;-59
2022/10/15 19:37:49;;;;;;;7.88;4.40;;;;;;;;;;20923423;28;20056;-60
2022/10/15 19:47:51;;;;;;;8.63;4.80;;;;;;;;;;20922203;28;20413;-60
2022/10/15 19:57:53;;;;;;;10.32;5.15;;;;;;;;;;20921505;28;20071;-60
2022/10/15 20:07:55;;;;;;;10.90;4.75;;;;;;;;;;20921024;28;20053;-60
2022/10/15 20:17:57;;;;;;;13.25;7.22;;;;;;;;;;20920590;28;20048;-60
2022/10/15 20:27:59;;;;;;;11.00;5.97;;;;;;;;;;20919789;28;20088;-62
2022/10/15 20:38:01;;;;;;;16.77;7.22;;;;;;;;;;20919366;28;20067;-60
2022/10/15 20:48:04;;;;;;;13.10;7.63;;;;;;;;;;20915761;28;20056;-60
2022/10/15 20:58:06;;;;;;;23.23;10.57;;;;;;;;;;20917814;28;20394;-62
2022/10/15 21:08:08;;;;;;;20.08;9.63;;;;;;;;;;20916555;28;20053;-64
2022/10/15 21:18:10;;;;;;;15.20;8.20;;;;;;;;;;20916753;28;20127;-60
2022/10/15 21:28:12;;;;;;;16.75;8.55;;;;;;;;;;20914897;28;20095;-61
2022/10/15 21:38:15;;;;;;;18.15;9.52;;;;;;;;;;20913838;28;20071;-59
2022/10/15 21:48:17;;;;;;;19.88;9.60;;;;;;;;;;20913189;28;20083;-59
2022/10/15 21:58:19;;;;;;;19.92;9.77;;;;;;;;;;20912807;28;20045;-60
2022/10/15 22:08:21;;;;;;;20.88;9.27;;;;;;;;;;20911290;28;20045;-65
2022/10/15 22:18:22;;;;;;;14.27;7.93;;;;;;;;;;20913008;28;20044;-65
2022/10/15 22:28:25;;;;;;;16.38;8.32;;;;;;;;;;20912369;28;20045;-61
2022/10/15 22:38:27;;;;;;;18.92;8.95;;;;;;;;;;20927526;28;20500;-61
2022/10/15 22:48:34;;;;;;;17.20;7.45;;;;;;;;;;20926614;28;20522;-60
2022/10/15 22:58:36;;;;;;;14.75;6.93;;;;;;;;;;20927135;28;20110;-61
2022/10/15 23:08:38;;;;;;;17.35;7.45;;;;;;;;;;20926080;28;20079;-61
2022/10/15 23:18:42;;;;;;;12.00;5.78;;;;;;;;;;20925427;28;20506;-65
2022/10/15 23:28:48;;;;;;;12.63;6.80;;;;;;;;;;20923897;28;20056;-64
2022/10/15 23:38:51;;;;;;;15.57;7.25;;;;;;;;;;20923215;28;20071;-60
2022/10/15 23:48:53;;;;;;;14.77;6.70;;;;;;;;;;20921722;28;20048;-65
2022/10/15 23:58:57;;;;;;;14.00;7.13;;;;;;;;;;20922454;28;20592;-59
